Time;durP1;ratioP1;P1;durP2;ratioP2;P2;SDS_P1;SDS_P2;PMS_P1;PMS_P2;Temp;Humidity;BMP_temperature;BMP_pressure;BME280_temperature;BME280_humidity;BME280_pressure;Samples;Min_cycle;Max_cycle;Signal;HPM_P1;HPM_P2
2024/03/17 00:01:14;;;;;;;;;;;;;;;21.63;26.47;98290.38;5019284;28;909;-81
2024/03/17 00:03:39;;;;;;;;;;;;;;;21.69;26.08;98294.28;5017467;28;1906;-81
2024/03/17 00:06:05;;;;;;;;;;;;;;;21.86;25.99;98292.28;5018546;28;1733;-81
2024/03/17 00:08:31;;;;;;;;;;;;;;;21.70;26.27;98295.09;5024469;28;1548;-81
2024/03/17 00:10:56;;;;;;;;;;;;;;;21.33;26.51;98292.22;5002908;28;925;-81
2024/03/17 00:13:22;;;;;;;;;;;;;;;21.68;26.04;98287.03;5000952;28;1107;-81
2024/03/17 00:15:48;;;;;;;;;;;;;;;21.53;26.60;98282.94;5000258;28;875;-81
2024/03/17 00:18:14;;;;;;;;;;;;;;;21.51;26.50;98283.38;5001634;28;1068;-82
2024/03/17 00:20:40;;;;;;;;;;;;;;;21.76;26.16;98282.00;5002755;28;1525;-82
2024/03/17 00:23:09;;;;;;;;;;;;;;;21.56;26.57;98279.22;5001320;28;986;-81
2024/03/17 00:25:35;;;;;;;;;;;;;;;21.73;25.93;98278.03;4986217;28;1918;-82
2024/03/17 00:28:00;;;;;;;;;;;;;;;21.73;26.03;98283.69;5001096;28;1188;-81
2024/03/17 00:30:27;;;;;;;;;;;;;;;21.65;26.26;98281.44;4985793;28;1693;-81
2024/03/17 00:32:52;;;;;;;;;;;;;;;21.59;25.98;98278.34;5001415;28;904;-81
2024/03/17 00:35:20;;;;;;;;;;;;;;;21.71;26.21;98277.69;5001520;28;1382;-82
2024/03/17 00:37:47;;;;;;;;;;;;;;;21.69;26.22;98276.50;5001542;28;899;-81
2024/03/17 00:40:13;;;;;;;;;;;;;;;21.62;26.30;98271.81;5001234;28;823;-81
2024/03/17 00:42:38;;;;;;;;;;;;;;;21.56;26.47;98273.56;5002185;28;890;-81
2024/03/17 00:45:06;;;;;;;;;;;;;;;21.64;26.28;98275.00;5000685;28;1906;-81
2024/03/17 00:47:32;;;;;;;;;;;;;;;21.49;26.21;98274.50;4969874;28;1235;-81
2024/03/17 00:49:57;;;;;;;;;;;;;;;21.40;26.52;98276.31;4968280;28;1343;-80
2024/03/17 00:52:23;;;;;;;;;;;;;;;21.49;26.11;98274.50;5005488;28;883;-81
2024/03/17 00:54:49;;;;;;;;;;;;;;;21.79;26.02;98276.25;5004795;28;783;-81
2024/03/17 00:57:15;;;;;;;;;;;;;;;21.71;26.19;98277.69;5021276;28;723;-81
2024/03/17 00:59:44;;;;;;;;;;;;;;;21.59;26.16;98269.84;5020567;28;846;-81
2024/03/17 01:02:12;;;;;;;;;;;;;;;21.78;26.04;98274.66;4988638;28;1398;-81
2024/03/17 01:04:39;;;;;;;;;;;;;;;21.82;25.93;98272.56;5023704;28;1895;-81
2024/03/17 01:07:04;;;;;;;;;;;;;;;21.66;26.08;98266.03;5041868;28;1238;-81
2024/03/17 01:09:30;;;;;;;;;;;;;;;21.64;26.04;98272.16;5042046;28;839;-81
2024/03/17 01:11:55;;;;;;;;;;;;;;;21.59;26.13;98262.13;5042624;28;1397;-82
2024/03/17 01:14:21;;;;;;;;;;;;;;;21.52;26.25;98264.34;5041211;28;1193;-82
2024/03/17 01:16:47;;;;;;;;;;;;;;;21.45;26.53;98261.66;5042230;28;778;-82
2024/03/17 01:19:12;;;;;;;;;;;;;;;21.62;26.37;98263.31;5008512;28;1233;-81
2024/03/17 01:21:38;;;;;;;;;;;;;;;21.66;26.23;98266.88;5043068;28;905;-82
2024/03/17 01:24:03;;;;;;;;;;;;;;;21.82;25.94;98255.56;5024570;28;1930;-82
2024/03/17 01:26:29;;;;;;;;;;;;;;;21.66;26.30;98254.72;5041068;28;1495;-82
2024/03/17 01:28:55;;;;;;;;;;;;;;;21.61;26.28;98253.22;5024361;28;874;-81
2024/03/17 01:31:20;;;;;;;;;;;;;;;21.48;26.30;98255.13;5042733;28;837;-82
2024/03/17 01:33:46;;;;;;;;;;;;;;;21.46;26.28;98252.75;5024327;28;1151;-81
2024/03/17 01:36:12;;;;;;;;;;;;;;;21.23;26.61;98261.28;4985205;28;1132;-81
2024/03/17 01:38:38;;;;;;;;;;;;;;;21.57;26.18;98252.50;4983730;28;807;-82
2024/03/17 01:41:04;;;;;;;;;;;;;;;21.64;25.97;98252.34;4968631;28;1396;-82
2024/03/17 01:43:30;;;;;;;;;;;;;;;21.69;26.25;98248.97;4983611;28;1914;-81
2024/03/17 01:45:56;;;;;;;;;;;;;;;21.66;26.27;98249.88;4985549;28;1069;-82
2024/03/17 01:48:21;;;;;;;;;;;;;;;21.71;26.00;98257.84;4984114;28;992;-81
2024/03/17 01:50:49;;;;;;;;;;;;;;;21.84;26.03;98244.56;4927762;29;1332;-81
2024/03/17 01:53:15;;;;;;;;;;;;;;;21.61;26.13;98243.94;4942017;29;883;-81
2024/03/17 01:55:42;;;;;;;;;;;;;;;21.52;26.50;98251.00;4910879;29;1342;-82
2024/03/17 01:58:10;;;;;;;;;;;;;;;21.49;26.08;98246.19;4923527;29;772;-82
2024/03/17 02:00:36;;;;;;;;;;;;;;;21.56;26.43;98248.09;4924016;29;929;-81
2024/03/17 02:03:08;;;;;;;;;;;;;;;21.55;26.43;98243.63;4923131;29;977;-82
2024/03/17 02:05:37;;;;;;;;;;;;;;;21.63;26.37;98245.09;4923478;29;1911;-82
2024/03/17 02:08:06;;;;;;;;;;;;;;;21.64;26.37;98248.72;4925312;29;1479;-81
2024/03/17 02:10:33;;;;;;;;;;;;;;;21.74;26.36;98244.84;4942957;29;916;-81
2024/03/17 02:12:59;;;;;;;;;;;;;;;21.62;26.22;98240.66;4953743;28;831;-82
2024/03/17 02:15:25;;;;;;;;;;;;;;;21.66;26.07;98241.38;4967765;28;756;-81
2024/03/17 02:17:50;;;;;;;;;;;;;;;21.28;26.66;98236.09;5000195;28;814;-82
2024/03/17 02:20:16;;;;;;;;;;;;;;;21.70;26.26;98238.44;5000274;28;767;-82
2024/03/17 02:22:41;;;;;;;;;;;;;;;21.50;26.52;98241.31;4988131;28;1524;-81
2024/03/17 02:25:10;;;;;;;;;;;;;;;21.65;26.22;98241.78;5039968;28;1977;-82
2024/03/17 02:27:36;;;;;;;;;;;;;;;21.77;25.84;98233.44;5040043;28;1137;-81
2024/03/17 02:30:02;;;;;;;;;;;;;;;21.63;26.10;98236.59;5023776;28;1202;-81
2024/03/17 02:32:27;;;;;;;;;;;;;;;21.71;25.93;98240.84;5040652;28;789;-81
2024/03/17 02:34:53;;;;;;;;;;;;;;;21.36;26.52;98241.66;5041078;28;746;-81
2024/03/17 02:37:19;;;;;;;;;;;;;;;21.18;26.39;98242.78;5041338;28;1502;-81
2024/03/17 02:39:44;;;;;;;;;;;;;;;21.18;26.68;98237.13;4985356;28;1462;-81
2024/03/17 02:42:10;;;;;;;;;;;;;;;21.49;26.20;98234.88;5003228;28;1018;-82
2024/03/17 02:44:36;;;;;;;;;;;;;;;21.57;26.05;98236.31;5002347;28;1981;-81
2024/03/17 02:47:03;;;;;;;;;;;;;;;21.77;26.03;98227.75;4987222;28;768;-82
2024/03/17 02:49:43;;;;;;;;;;;;;;;21.78;25.67;98223.69;4979282;28;865;-80
2024/03/17 02:52:09;;;;;;;;;;;;;;;21.67;26.28;98223.16;4976293;28;1390;-82
2024/03/17 02:54:35;;;;;;;;;;;;;;;21.70;25.57;98222.25;4947776;28;1167;-81
2024/03/17 02:57:01;;;;;;;;;;;;;;;21.27;26.46;98216.75;4980514;28;950;-82
2024/03/17 02:59:26;;;;;;;;;;;;;;;21.41;26.09;98224.16;4963103;28;1115;-82
2024/03/17 03:01:52;;;;;;;;;;;;;;;21.38;26.41;98216.53;4964046;28;898;-81
2024/03/17 03:04:17;;;;;;;;;;;;;;;21.45;26.28;98222.03;4963004;28;1971;-82
2024/03/17 03:06:43;;;;;;;;;;;;;;;21.57;26.36;98215.69;4979685;28;1355;-81
2024/03/17 03:09:13;;;;;;;;;;;;;;;21.65;26.10;98219.94;4946877;28;1134;-81
2024/03/17 03:11:42;;;;;;;;;;;;;;;21.74;26.25;98216.50;4962372;28;1216;-81
2024/03/17 03:14:07;;;;;;;;;;;;;;;21.65;25.88;98225.59;4979400;28;1280;-82
2024/03/17 03:16:33;;;;;;;;;;;;;;;21.54;26.18;98213.72;4979968;28;917;-81
2024/03/17 03:18:59;;;;;;;;;;;;;;;21.36;26.51;98222.63;4978966;28;884;-81
2024/03/17 03:21:24;;;;;;;;;;;;;;;21.71;26.10;98225.88;4995836;28;1317;-81
2024/03/17 03:23:50;;;;;;;;;;;;;;;21.59;26.49;98228.16;4979141;28;1914;-81
2024/03/17 03:26:16;;;;;;;;;;;;;;;21.44;26.33;98221.22;4975989;28;902;-82
2024/03/17 03:28:41;;;;;;;;;;;;;;;21.75;25.89;98221.72;4958713;29;1130;-81
2024/03/17 03:31:10;;;;;;;;;;;;;;;21.70;25.98;98227.91;4961160;29;906;-81
2024/03/17 03:33:36;;;;;;;;;;;;;;;21.81;25.99;98228.47;4968571;28;1011;-81
2024/03/17 03:36:06;;;;;;;;;;;;;;;21.43;26.26;98235.81;5054276;28;1492;-82
2024/03/17 03:38:33;;;;;;;;;;;;;;;21.45;26.04;98236.19;5020923;28;1088;-82
2024/03/17 03:40:58;;;;;;;;;;;;;;;21.56;26.32;98228.25;5022988;28;805;-82
2024/03/17 03:43:26;;;;;;;;;;;;;;;21.58;26.01;98231.44;5053641;28;951;-81
2024/03/17 03:45:52;;;;;;;;;;;;;;;21.74;25.86;98234.28;5042462;28;1910;-81
2024/03/17 03:48:18;;;;;;;;;;;;;;;21.79;25.74;98242.28;5024050;28;1087;-82
2024/03/17 03:50:43;;;;;;;;;;;;;;;21.77;25.79;98239.09;5043924;28;1349;-82
2024/03/17 03:53:09;;;;;;;;;;;;;;;21.69;25.75;98243.31;5061429;28;800;-82
2024/03/17 03:55:34;;;;;;;;;;;;;;;21.26;26.20;98235.75;5045681;28;826;-82
2024/03/17 03:58:00;;;;;;;;;;;;;;;21.35;25.88;98242.88;5060158;28;1341;-81
2024/03/17 04:00:29;;;;;;;;;;;;;;;21.45;26.07;98239.00;5044845;28;1180;-82
2024/03/17 04:02:55;;;;;;;;;;;;;;;21.44;26.49;98240.25;4997248;28;930;-82
2024/03/17 04:05:20;;;;;;;;;;;;;;;21.63;26.14;98244.28;5061201;28;1973;-81
2024/03/17 04:07:47;;;;;;;;;;;;;;;21.55;26.39;98249.28;5062242;28;863;-82
2024/03/17 04:10:13;;;;;;;;;;;;;;;21.59;25.94;98244.34;5042113;28;873;-81
2024/03/17 04:12:38;;;;;;;;;;;;;;;21.71;25.86;98252.19;5001480;28;1618;-82
2024/03/17 04:15:06;;;;;;;;;;;;;;;21.68;26.02;98253.06;4983332;28;1510;-82
2024/03/17 04:17:32;;;;;;;;;;;;;;;21.59;25.88;98256.47;4986019;28;901;-81
2024/03/17 04:19:57;;;;;;;;;;;;;;;21.04;26.84;98254.44;5001679;28;1156;-82
2024/03/17 04:22:23;;;;;;;;;;;;;;;20.76;27.00;98262.22;4985724;28;984;-81
2024/03/17 04:24:53;;;;;;;;;;;;;;;21.20;27.05;98257.31;4985696;28;1914;-81
2024/03/17 04:27:21;;;;;;;;;;;;;;;21.44;26.47;98260.84;4986068;28;1049;-81
2024/03/17 04:29:50;;;;;;;;;;;;;;;21.50;26.35;98261.97;5001624;28;1319;-81
2024/03/17 04:32:16;;;;;;;;;;;;;;;21.59;26.07;98259.31;4986701;28;913;-82
2024/03/17 04:34:43;;;;;;;;;;;;;;;21.65;25.96;98259.59;4984923;28;932;-81
2024/03/17 04:37:10;;;;;;;;;;;;;;;21.77;25.76;98267.41;5002621;28;1311;-82
2024/03/17 04:39:37;;;;;;;;;;;;;;;21.49;26.08;98268.03;5001296;28;1247;-81
2024/03/17 04:42:04;;;;;;;;;;;;;;;21.28;26.09;98267.22;4963430;28;1739;-82
2024/03/17 04:44:29;;;;;;;;;;;;;;;21.40;26.25;98270.66;4962506;28;1954;-82
2024/03/17 04:46:55;;;;;;;;;;;;;;;21.66;25.93;98278.19;4966364;28;1339;-82
2024/03/17 04:49:20;;;;;;;;;;;;;;;21.53;26.38;98268.78;4962300;28;1217;-81
2024/03/17 04:51:46;;;;;;;;;;;;;;;21.69;26.15;98271.63;4943468;29;1771;-81
2024/03/17 04:54:12;;;;;;;;;;;;;;;21.62;26.21;98271.81;4942839;28;1124;-81
2024/03/17 04:56:38;;;;;;;;;;;;;;;21.75;25.84;98269.88;4927827;28;1107;-81
2024/03/17 04:59:05;;;;;;;;;;;;;;;21.76;25.63;98277.16;4942619;29;1124;-81
2024/03/17 05:01:36;;;;;;;;;;;;;;;21.29;26.63;98276.53;4926587;29;896;-81
2024/03/17 05:04:04;;;;;;;;;;;;;;;21.03;26.68;98281.09;4926179;29;1978;-81
2024/03/17 05:06:29;;;;;;;;;;;;;;;21.52;26.53;98278.50;4942710;29;799;-81
2024/03/17 05:08:55;;;;;;;;;;;;;;;21.66;25.94;98281.03;4980440;28;1263;-82
2024/03/17 05:11:21;;;;;;;;;;;;;;;21.69;25.95;98282.97;4981756;28;831;-82
2024/03/17 05:13:46;;;;;;;;;;;;;;;21.62;26.20;98277.47;4932713;29;1152;-81
2024/03/17 05:16:12;;;;;;;;;;;;;;;21.71;26.04;98286.19;4965650;28;874;-82
2024/03/17 05:18:39;;;;;;;;;;;;;;;21.58;26.03;98288.88;4963845;28;893;-81
2024/03/17 05:21:05;;;;;;;;;;;;;;;21.41;26.29;98287.22;4962274;28;1131;-82
2024/03/17 05:23:31;;;;;;;;;;;;;;;21.74;26.18;98285.28;4975542;28;1266;-82
2024/03/17 05:25:57;;;;;;;;;;;;;;;21.67;26.34;98291.13;4968361;28;1989;-81
2024/03/17 05:28:23;;;;;;;;;;;;;;;21.66;25.92;98289.53;4997541;28;1199;-82
2024/03/17 05:30:50;;;;;;;;;;;;;;;21.68;26.31;98292.69;5003459;28;1354;-82
2024/03/17 05:33:21;;;;;;;;;;;;;;;21.76;26.12;98287.66;5002859;28;1163;-81
2024/03/17 05:35:52;;;;;;;;;;;;;;;21.85;25.80;98291.50;5004150;28;1262;-80
2024/03/17 05:38:21;;;;;;;;;;;;;;;21.59;26.00;98301.00;5003504;28;1191;-81
2024/03/17 05:40:56;;;;;;;;;;;;;;;21.43;26.44;98298.09;5035573;28;907;-81
2024/03/17 05:43:23;;;;;;;;;;;;;;;21.05;26.90;98290.75;5040729;28;799;-81
2024/03/17 05:45:50;;;;;;;;;;;;;;;21.59;26.11;98306.66;5058263;28;1984;-81
2024/03/17 05:48:15;;;;;;;;;;;;;;;21.73;26.23;98299.88;5056908;28;893;-81
2024/03/17 05:50:41;;;;;;;;;;;;;;;21.83;25.92;98299.66;5037663;28;1277;-80
2024/03/17 05:53:07;;;;;;;;;;;;;;;21.84;25.90;98306.91;5038001;28;1313;-81
2024/03/17 05:55:34;;;;;;;;;;;;;;;22.01;25.43;98306.91;5040982;28;773;-81
2024/03/17 05:58:01;;;;;;;;;;;;;;;21.59;26.22;98313.09;5040730;28;839;-81
2024/03/17 06:00:27;;;;;;;;;;;;;;;21.71;25.80;98311.66;5040526;28;881;-81
2024/03/17 06:02:52;;;;;;;;;;;;;;;21.42;26.33;98314.31;5040470;28;920;-81
2024/03/17 06:05:18;;;;;;;;;;;;;;;21.53;26.27;98314.88;5041062;28;1913;-81
2024/03/17 06:07:43;;;;;;;;;;;;;;;21.70;25.93;98320.56;5041651;28;1197;-81
2024/03/17 06:10:09;;;;;;;;;;;;;;;21.61;26.27;98324.03;5039856;28;1123;-81
2024/03/17 06:12:35;;;;;;;;;;;;;;;21.69;26.33;98316.94;5041717;28;851;-81
2024/03/17 06:15:02;;;;;;;;;;;;;;;21.87;25.91;98321.44;5039593;28;886;-80
2024/03/17 06:17:27;;;;;;;;;;;;;;;21.49;26.42;98325.47;5021035;28;1258;-80
2024/03/17 06:19:53;;;;;;;;;;;;;;;21.40;26.56;98315.94;5028997;28;1308;-81
2024/03/17 06:22:18;;;;;;;;;;;;;;;21.54;26.34;98327.00;5029916;28;1218;-81
2024/03/17 06:24:44;;;;;;;;;;;;;;;21.60;26.34;98319.56;5045625;28;1992;-81
2024/03/17 06:27:10;;;;;;;;;;;;;;;21.57;26.43;98326.13;5031553;28;1419;-82
2024/03/17 06:29:35;;;;;;;;;;;;;;;21.65;26.28;98327.56;5030798;28;1245;-81
2024/03/17 06:32:01;;;;;;;;;;;;;;;21.72;26.21;98330.25;5014662;28;1302;-82
2024/03/17 06:34:27;;;;;;;;;;;;;;;21.92;25.77;98329.41;5012734;28;1222;-82
2024/03/17 06:36:52;;;;;;;;;;;;;;;21.66;26.15;98334.84;5036967;28;774;-82
2024/03/17 06:39:21;;;;;;;;;;;;;;;21.43;26.46;98332.06;5035976;28;1110;-82
2024/03/17 06:41:46;;;;;;;;;;;;;;;21.70;26.29;98341.19;5020288;28;1242;-82
2024/03/17 06:44:12;;;;;;;;;;;;;;;21.54;26.46;98344.78;5052628;28;1922;-82
2024/03/17 06:46:37;;;;;;;;;;;;;;;21.74;25.98;98336.25;5020506;28;751;-82
2024/03/17 06:49:03;;;;;;;;;;;;;;;21.77;25.95;98334.59;5035634;28;803;-82
2024/03/17 06:51:29;;;;;;;;;;;;;;;21.62;26.41;98336.94;5036528;28;1134;-82
2024/03/17 06:53:54;;;;;;;;;;;;;;;21.66;26.34;98322.69;5052151;28;869;-82
2024/03/17 06:56:20;;;;;;;;;;;;;;;21.38;26.48;98329.75;5038899;28;1191;-82
2024/03/17 06:58:46;;;;;;;;;;;;;;;21.32;26.64;98332.31;5037779;28;858;-82
2024/03/17 07:01:12;;;;;;;;;;;;;;;21.81;26.09;98338.94;5006036;28;803;-82
2024/03/17 07:03:38;;;;;;;;;;;;;;;21.52;26.63;98344.41;5020988;28;764;-81
2024/03/17 07:06:04;;;;;;;;;;;;;;;21.75;26.27;98337.06;5038806;28;1985;-82
2024/03/17 07:08:30;;;;;;;;;;;;;;;21.71;26.05;98347.66;5037371;28;919;-82
2024/03/17 07:11:05;;;;;;;;;;;;;;;21.49;26.60;98347.31;5039257;28;1090;-82
2024/03/17 07:13:33;;;;;;;;;;;;;;;21.55;26.49;98346.38;5021546;28;894;-81
2024/03/17 07:15:59;;;;;;;;;;;;;;;21.87;26.13;98347.72;5022355;28;858;-82
2024/03/17 07:18:26;;;;;;;;;;;;;;;21.62;26.40;98344.63;5021068;28;835;-82
2024/03/17 07:20:52;;;;;;;;;;;;;;;21.65;26.13;98350.19;5006199;28;949;-82
2024/03/17 07:23:18;;;;;;;;;;;;;;;21.65;26.27;98350.19;5037802;28;879;-82
2024/03/17 07:25:51;;;;;;;;;;;;;;;21.64;26.50;98354.28;5038160;28;1979;-82
2024/03/17 07:28:17;;;;;;;;;;;;;;;21.62;26.43;98351.09;5004088;28;1095;-82
2024/03/17 07:30:55;;;;;;;;;;;;;;;21.18;27.04;98347.50;5038241;28;952;-82
2024/03/17 07:33:21;;;;;;;;;;;;;;;21.40;26.76;98345.09;5017933;28;1060;-82
2024/03/17 07:35:59;;;;;;;;;;;;;;;21.66;26.13;98351.81;5052574;28;857;-81
2024/03/17 07:38:28;;;;;;;;;;;;;;;21.60;26.52;98342.22;5017411;28;1124;-82
2024/03/17 07:41:00;;;;;;;;;;;;;;;21.71;26.25;98345.66;4986486;28;854;-82
2024/03/17 07:43:26;;;;;;;;;;;;;;;21.78;26.17;98342.66;4984822;28;1318;-82
2024/03/17 07:45:58;;;;;;;;;;;;;;;21.96;26.02;98338.59;4963642;28;1958;-82
2024/03/17 07:48:23;;;;;;;;;;;;;;;21.42;26.81;98341.81;4977863;28;1059;-82
2024/03/17 07:51:03;;;;;;;;;;;;;;;21.39;26.62;98348.31;4963905;28;876;-82
2024/03/17 07:53:30;;;;;;;;;;;;;;;21.11;27.34;98341.97;4962181;28;911;-81
2024/03/17 07:56:01;;;;;;;;;;;;;;;21.47;26.65;98338.47;4963255;28;927;-82
2024/03/17 07:58:27;;;;;;;;;;;;;;;21.65;26.63;98344.53;4978090;28;907;-82
2024/03/17 08:00:56;;;;;;;;;;;;;;;21.71;26.57;98337.16;4947073;28;1136;-82
2024/03/17 08:03:22;;;;;;;;;;;;;;;21.71;26.45;98337.16;4962321;28;1295;-82
2024/03/17 08:05:51;;;;;;;;;;;;;;;21.55;26.53;98337.06;4963180;28;1911;-81
2024/03/17 08:08:17;;;;;;;;;;;;;;;21.51;26.53;98339.19;4961603;28;1001;-82
2024/03/17 08:10:42;;;;;;;;;;;;;;;21.66;26.63;98340.50;4995513;28;1013;-82
2024/03/17 08:13:11;;;;;;;;;;;;;;;21.41;27.12;98334.56;4978555;28;834;-81
2024/03/17 08:15:37;;;;;;;;;;;;;;;21.47;26.87;98332.81;4995406;28;897;-81
2024/03/17 08:18:03;;;;;;;;;;;;;;;21.72;26.55;98344.41;5051282;28;846;-81
2024/03/17 08:20:29;;;;;;;;;;;;;;;21.75;26.66;98337.06;5018948;28;850;-82
2024/03/17 08:22:55;;;;;;;;;;;;;;;21.68;26.53;98335.19;5019530;28;747;-82
2024/03/17 08:25:20;;;;;;;;;;;;;;;21.35;26.87;98330.63;5036868;28;1891;-81
2024/03/17 08:27:46;;;;;;;;;;;;;;;21.03;27.22;98337.69;5027715;28;1281;-82
2024/03/17 08:30:13;;;;;;;;;;;;;;;21.48;26.96;98329.53;5031498;28;1229;-81
2024/03/17 08:32:39;;;;;;;;;;;;;;;21.46;26.93;98326.34;5023442;28;1106;-81
2024/03/17 08:35:05;;;;;;;;;;;;;;;21.90;26.38;98326.22;5017254;28;896;-82
2024/03/17 08:37:31;;;;;;;;;;;;;;;21.90;26.20;98323.38;5020334;28;827;-82
2024/03/17 08:39:57;;;;;;;;;;;;;;;21.73;26.30;98323.34;5026512;28;1107;-82
2024/03/17 08:42:22;;;;;;;;;;;;;;;21.64;26.56;98314.63;5023682;28;778;-82
2024/03/17 08:44:48;;;;;;;;;;;;;;;21.36;27.01;98320.91;5053274;28;1981;-81
2024/03/17 08:47:14;;;;;;;;;;;;;;;21.61;26.89;98321.19;5024134;28;1233;-82
2024/03/17 08:49:39;;;;;;;;;;;;;;;21.77;26.65;98303.44;5023192;28;1258;-81
2024/03/17 08:52:05;;;;;;;;;;;;;;;21.71;26.80;98308.00;5024071;28;1245;-82
2024/03/17 08:54:30;;;;;;;;;;;;;;;21.84;26.27;98306.91;5023355;28;964;-82
2024/03/17 08:56:56;;;;;;;;;;;;;;;21.79;26.42;98304.59;5023728;28;1099;-82
2024/03/17 08:59:22;;;;;;;;;;;;;;;21.51;26.89;98305.22;5040048;28;1241;-82
2024/03/17 09:01:47;;;;;;;;;;;;;;;21.20;27.42;98298.97;5024783;28;903;-82
2024/03/17 09:04:13;;;;;;;;;;;;;;;21.71;26.60;98303.16;4980803;28;1891;-82
2024/03/17 09:06:39;;;;;;;;;;;;;;;21.61;26.79;98309.88;4982313;28;945;-82
2024/03/17 09:09:06;;;;;;;;;;;;;;;21.59;27.03;98306.66;4964565;28;1291;-82
2024/03/17 09:11:31;;;;;;;;;;;;;;;21.74;26.65;98299.44;4981705;28;1362;-82
2024/03/17 09:13:58;;;;;;;;;;;;;;;21.80;26.36;98300.50;4980763;28;768;-81
2024/03/17 09:16:25;;;;;;;;;;;;;;;21.65;26.53;98299.22;4980211;28;1101;-82
2024/03/17 09:18:51;;;;;;;;;;;;;;;21.33;26.90;98300.72;4966849;28;1248;-82
2024/03/17 09:21:17;;;;;;;;;;;;;;;21.38;27.23;98305.06;5000268;28;1366;-81
2024/03/17 09:23:42;;;;;;;;;;;;;;;21.59;27.00;98292.50;4983260;28;1408;-82
2024/03/17 09:26:08;;;;;;;;;;;;;;;21.56;27.07;98290.56;5000635;28;1942;-82
2024/03/17 09:28:34;;;;;;;;;;;;;;;21.73;26.50;98283.69;4998967;28;1313;-82
2024/03/17 09:31:00;;;;;;;;;;;;;;;21.64;26.68;98283.47;5001333;28;812;-82
2024/03/17 09:33:26;;;;;;;;;;;;;;;21.54;26.91;98287.34;4999416;28;795;-81
2024/03/17 09:35:57;;;;;;;;;;;;;;;21.62;26.64;98288.81;5000661;28;860;-82
2024/03/17 09:38:23;;;;;;;;;;;;;;;21.62;26.83;98282.34;4975943;28;2227;-82
2024/03/17 09:41:00;;;;;;;;;;;;;;;21.57;26.92;98283.66;4949372;28;1287;-82
2024/03/17 09:43:25;;;;;;;;;;;;;;;21.76;26.67;98282.81;4987273;28;1235;-82
2024/03/17 09:45:54;;;;;;;;;;;;;;;21.75;26.49;98275.53;4990971;28;1903;-82
2024/03/17 09:48:20;;;;;;;;;;;;;;;21.75;26.50;98269.88;4982130;28;1388;-82
2024/03/17 09:50:53;;;;;;;;;;;;;;;21.83;26.42;98271.31;4977908;28;1211;-82
2024/03/17 09:53:22;;;;;;;;;;;;;;;21.57;26.56;98275.16;4973054;28;1192;-82
2024/03/17 09:55:47;;;;;;;;;;;;;;;21.50;26.95;98269.63;5000191;28;891;-82
2024/03/17 09:58:19;;;;;;;;;;;;;;;21.73;26.88;98265.91;4987244;28;1106;-81
2024/03/17 10:00:45;;;;;;;;;;;;;;;21.75;26.54;98263.41;4965557;28;1302;-81
2024/03/17 10:03:10;;;;;;;;;;;;;;;21.77;26.61;98267.41;4990253;28;1321;-82
2024/03/17 10:05:36;;;;;;;;;;;;;;;21.57;26.86;98263.84;4987654;28;1903;-80
2024/03/17 10:08:02;;;;;;;;;;;;;;;21.50;26.76;98263.97;4989279;28;1289;-81
2024/03/17 10:10:27;;;;;;;;;;;;;;;21.28;27.31;98264.41;4970925;28;1397;-81
2024/03/17 10:12:53;;;;;;;;;;;;;;;21.18;27.17;98262.59;4987201;28;1214;-82
2024/03/17 10:15:20;;;;;;;;;;;;;;;21.40;27.16;98253.69;5001278;28;1301;-82
2024/03/17 10:17:45;;;;;;;;;;;;;;;21.65;26.82;98259.59;5040480;28;1386;-81
2024/03/17 10:20:17;;;;;;;;;;;;;;;21.66;26.76;98258.38;5035090;28;912;-82
2024/03/17 10:23:02;;;;;;;;;;;;;;;21.54;27.20;98253.38;5035913;28;957;-81
2024/03/17 10:25:28;;;;;;;;;;;;;;;21.73;26.46;98252.53;5019224;28;1914;-81
2024/03/17 10:27:56;;;;;;;;;;;;;;;21.47;27.26;98251.50;5035377;28;1068;-81
2024/03/17 10:30:22;;;;;;;;;;;;;;;21.61;26.54;98253.22;5019354;28;923;-82
2024/03/17 10:32:54;;;;;;;;;;;;;;;21.38;27.27;98250.50;5002705;28;827;-81
2024/03/17 10:35:35;;;;;;;;;;;;;;;21.63;26.78;98245.09;5018647;28;992;-82
2024/03/17 10:38:01;;;;;;;;;;;;;;;21.83;26.41;98248.66;5002065;28;977;-81
2024/03/17 10:40:27;;;;;;;;;;;;;;;21.88;26.71;98238.84;4979715;28;892;-82
2024/03/17 10:42:52;;;;;;;;;;;;;;;21.87;26.77;98240.09;4979976;28;875;-82
2024/03/17 10:45:18;;;;;;;;;;;;;;;21.59;27.04;98245.16;4963756;28;1891;-82
2024/03/17 10:47:47;;;;;;;;;;;;;;;21.60;26.63;98240.28;4996062;28;1084;-81
2024/03/17 10:50:17;;;;;;;;;;;;;;;21.35;26.98;98237.22;4973794;28;1239;-81
2024/03/17 10:52:46;;;;;;;;;;;;;;;21.41;27.24;98232.66;4982080;28;1251;-81
2024/03/17 10:55:12;;;;;;;;;;;;;;;21.68;26.72;98230.41;4967067;28;1303;-81
2024/03/17 10:57:37;;;;;;;;;;;;;;;21.80;26.54;98228.91;4969364;28;1247;-82
2024/03/17 11:00:04;;;;;;;;;;;;;;;21.75;26.70;98230.22;4966434;28;1438;-81
2024/03/17 11:02:33;;;;;;;;;;;;;;;21.91;26.55;98225.81;4930443;29;1322;-81
2024/03/17 11:05:21;;;;;;;;;;;;;;;21.95;26.71;98220.88;4930702;29;1914;-80
2024/03/17 11:07:48;;;;;;;;;;;;;;;21.63;27.01;98216.75;4862515;29;1282;-81
2024/03/17 11:10:23;;;;;;;;;;;;;;;21.39;27.32;98215.28;4879561;29;1249;-81
2024/03/17 11:12:49;;;;;;;;;;;;;;;21.56;26.87;98211.28;4917606;29;1331;-80
2024/03/17 11:15:26;;;;;;;;;;;;;;;21.71;26.74;98209.72;4901299;29;1253;-80
2024/03/17 11:17:52;;;;;;;;;;;;;;;21.68;26.85;98204.13;4896571;29;1282;-80
2024/03/17 11:20:24;;;;;;;;;;;;;;;21.81;26.87;98203.00;4917088;29;1300;-82
2024/03/17 11:22:51;;;;;;;;;;;;;;;21.83;26.66;98199.72;4899114;29;1230;-80
2024/03/17 11:25:25;;;;;;;;;;;;;;;21.84;26.70;98202.09;4900537;29;1899;-81
2024/03/17 11:27:51;;;;;;;;;;;;;;;21.40;27.24;98197.06;4898831;29;1229;-81
2024/03/17 11:30:35;;;;;;;;;;;;;;;21.08;27.63;98198.53;4885847;29;1260;-81
2024/03/17 11:33:01;;;;;;;;;;;;;;;21.54;27.07;98191.09;4924601;29;1193;-81
2024/03/17 11:35:26;;;;;;;;;;;;;;;21.69;27.03;98189.50;4939415;29;1307;-81
2024/03/17 11:37:53;;;;;;;;;;;;;;;21.66;26.94;98181.91;4939235;29;1314;-81
2024/03/17 11:40:24;;;;;;;;;;;;;;;21.77;26.97;98188.09;4939288;29;1294;-82
2024/03/17 11:43:02;;;;;;;;;;;;;;;21.79;26.83;98182.78;4923693;29;1679;-81
2024/03/17 11:45:28;;;;;;;;;;;;;;;21.39;27.19;98178.50;4999232;28;1914;-81
2024/03/17 11:47:53;;;;;;;;;;;;;;;21.10;27.77;98181.94;5031002;28;1304;-81
2024/03/17 11:50:19;;;;;;;;;;;;;;;21.77;27.04;98176.00;5026702;28;1261;-82
2024/03/17 11:52:45;;;;;;;;;;;;;;;21.78;27.00;98174.75;5026749;28;1186;-82
2024/03/17 11:55:18;;;;;;;;;;;;;;;21.76;27.00;98175.19;5025142;28;1187;-81
2024/03/17 11:57:45;;;;;;;;;;;;;;;21.88;26.94;98167.22;5056577;28;1352;-82
2024/03/17 12:00:21;;;;;;;;;;;;;;;21.94;26.79;98168.28;5039168;28;790;-81
2024/03/17 12:02:48;;;;;;;;;;;;;;;21.54;27.00;98168.44;5039570;28;864;-81
2024/03/17 12:05:13;;;;;;;;;;;;;;;21.68;26.76;98172.97;5039085;28;1898;-81
2024/03/17 12:07:42;;;;;;;;;;;;;;;21.20;27.78;98165.97;5038431;28;850;-82
2024/03/17 12:10:09;;;;;;;;;;;;;;;21.62;27.00;98169.06;5038214;28;1135;-81
2024/03/17 12:12:35;;;;;;;;;;;;;;;21.71;27.06;98161.56;5026015;28;927;-81
2024/03/17 12:15:00;;;;;;;;;;;;;;;21.78;27.05;98167.03;5040950;28;961;-82
2024/03/17 12:17:27;;;;;;;;;;;;;;;21.78;26.92;98155.72;5024689;28;1009;-82
2024/03/17 12:19:53;;;;;;;;;;;;;;;21.62;27.00;98164.22;5024696;28;1420;-81
2024/03/17 12:22:22;;;;;;;;;;;;;;;21.69;26.94;98164.03;5041698;28;827;-81
2024/03/17 12:24:51;;;;;;;;;;;;;;;21.44;27.11;98161.78;5040374;28;1981;-82
2024/03/17 12:27:20;;;;;;;;;;;;;;;21.67;27.00;98154.38;5041974;28;1084;-81
2024/03/17 12:29:47;;;;;;;;;;;;;;;21.91;26.58;98161.44;5040243;28;952;-81
2024/03/17 12:32:16;;;;;;;;;;;;;;;21.77;26.89;98162.63;5041592;28;778;-81
2024/03/17 12:34:42;;;;;;;;;;;;;;;21.66;27.04;98156.44;5040576;28;914;-82
2024/03/17 12:37:08;;;;;;;;;;;;;;;21.67;27.08;98152.34;5024996;28;814;-81
2024/03/17 12:39:34;;;;;;;;;;;;;;;21.61;27.08;98156.94;5040483;28;916;-82
2024/03/17 12:42:13;;;;;;;;;;;;;;;21.31;27.36;98150.38;5041501;28;922;-81
2024/03/17 12:44:42;;;;;;;;;;;;;;;21.24;27.82;98144.03;5023836;28;1980;-81
2024/03/17 12:47:28;;;;;;;;;;;;;;;21.64;27.03;98147.56;5022240;28;849;-81
2024/03/17 12:50:00;;;;;;;;;;;;;;;21.83;26.98;98140.22;5021161;28;1325;-82
2024/03/17 12:52:26;;;;;;;;;;;;;;;21.85;26.64;98137.72;5022148;28;919;-81
2024/03/17 13:00:31;;;;;;;;;;;;;;;21.98;26.79;98137.81;5004823;28;764;-82
2024/03/17 13:00:31;;;;;;;;;;;;;;;21.63;26.77;98133.84;5022890;28;807;-82
2024/03/17 13:02:57;;;;;;;;;;;;;;;21.40;27.31;98134.78;5021512;28;1217;-81